sensor_id;sensor_type;location;lat;lon;timestamp;P1;durP1;ratioP1;P2;durP2;ratioP2
26271;SDS011;13997;48.902;12.472;2023-04-03T00:00:25;10.35;;;3.40;;
26271;SDS011;13997;48.902;12.472;2023-04-03T00:02:50;5.07;;;2.90;;
26271;SDS011;13997;48.902;12.472;2023-04-03T00:05:16;6.85;;;3.33;;
26271;SDS011;13997;48.902;12.472;2023-04-03T00:07:42;6.65;;;3.53;;
26271;SDS011;13997;48.902;12.472;2023-04-03T00:10:07;6.68;;;3.17;;
26271;SDS011;13997;48.902;12.472;2023-04-03T00:12:33;4.55;;;3.05;;
26271;SDS011;13997;48.902;12.472;2023-04-03T00:14:59;6.25;;;3.10;;
26271;SDS011;13997;48.902;12.472;2023-04-03T00:17:24;6.05;;;3.17;;
26271;SDS011;13997;48.902;12.472;2023-04-03T00:19:50;6.50;;;3.30;;
26271;SDS011;13997;48.902;12.472;2023-04-03T00:22:16;5.43;;;3.05;;
26271;SDS011;13997;48.902;12.472;2023-04-03T00:24:41;6.72;;;3.58;;
26271;SDS011;13997;48.902;12.472;2023-04-03T00:27:07;5.72;;;3.50;;
26271;SDS011;13997;48.902;12.472;2023-04-03T00:29:32;5.22;;;2.95;;
26271;SDS011;13997;48.902;12.472;2023-04-03T00:31:58;4.50;;;3.08;;
26271;SDS011;13997;48.902;12.472;2023-04-03T00:34:23;6.68;;;2.90;;
26271;SDS011;13997;48.902;12.472;2023-04-03T00:36:49;5.57;;;3.10;;
26271;SDS011;13997;48.902;12.472;2023-04-03T00:39:16;4.63;;;3.10;;
26271;SDS011;13997;48.902;12.472;2023-04-03T00:41:42;7.18;;;3.80;;
26271;SDS011;13997;48.902;12.472;2023-04-03T00:47:02;8.23;;;3.47;;
26271;SDS011;13997;48.902;12.472;2023-04-03T00:49:31;7.70;;;3.50;;
26271;SDS011;13997;48.902;12.472;2023-04-03T00:51:56;7.00;;;3.67;;
26271;SDS011;13997;48.902;12.472;2023-04-03T00:54:23;8.07;;;3.53;;
26271;SDS011;13997;48.902;12.472;2023-04-03T00:56:51;5.85;;;3.70;;
26271;SDS011;13997;48.902;12.472;2023-04-03T00:59:19;5.93;;;3.53;;
26271;SDS011;13997;48.902;12.472;2023-04-03T01:01:50;6.55;;;3.60;;
26271;SDS011;13997;48.902;12.472;2023-04-03T01:07:03;6.15;;;3.70;;
26271;SDS011;13997;48.902;12.472;2023-04-03T01:09:31;7.07;;;3.80;;
26271;SDS011;13997;48.902;12.472;2023-04-03T01:14:48;5.78;;;3.15;;
26271;SDS011;13997;48.902;12.472;2023-04-03T01:17:31;5.00;;;3.05;;
26271;SDS011;13997;48.902;12.472;2023-04-03T01:25:35;6.75;;;4.28;;
26271;SDS011;13997;48.902;12.472;2023-04-03T01:28:16;7.85;;;3.95;;
26271;SDS011;13997;48.902;12.472;2023-04-03T01:30:47;9.75;;;4.30;;
26271;SDS011;13997;48.902;12.472;2023-04-03T01:33:32;6.22;;;3.85;;
26271;SDS011;13997;48.902;12.472;2023-04-03T01:35:58;7.57;;;3.70;;
26271;SDS011;13997;48.902;12.472;2023-04-03T01:38:24;7.70;;;3.60;;
26271;SDS011;13997;48.902;12.472;2023-04-03T01:40:50;5.95;;;3.50;;
26271;SDS011;13997;48.902;12.472;2023-04-03T01:43:15;5.68;;;3.53;;
26271;SDS011;13997;48.902;12.472;2023-04-03T01:45:41;9.90;;;3.95;;
26271;SDS011;13997;48.902;12.472;2023-04-03T01:48:07;9.50;;;3.78;;
26271;SDS011;13997;48.902;12.472;2023-04-03T01:50:32;9.45;;;3.80;;
26271;SDS011;13997;48.902;12.472;2023-04-03T01:52:58;8.38;;;3.92;;
26271;SDS011;13997;48.902;12.472;2023-04-03T01:55:24;7.65;;;3.97;;
26271;SDS011;13997;48.902;12.472;2023-04-03T01:57:49;7.78;;;3.25;;
26271;SDS011;13997;48.902;12.472;2023-04-03T02:00:15;6.75;;;4.13;;
26271;SDS011;13997;48.902;12.472;2023-04-03T02:02:41;6.55;;;3.90;;
26271;SDS011;13997;48.902;12.472;2023-04-03T02:05:07;8.18;;;3.97;;
26271;SDS011;13997;48.902;12.472;2023-04-03T02:07:33;11.07;;;4.30;;
26271;SDS011;13997;48.902;12.472;2023-04-03T02:09:58;6.28;;;3.80;;
26271;SDS011;13997;48.902;12.472;2023-04-03T02:12:24;6.45;;;4.13;;
26271;SDS011;13997;48.902;12.472;2023-04-03T02:14:49;5.63;;;3.35;;
26271;SDS011;13997;48.902;12.472;2023-04-03T02:17:15;5.82;;;3.85;;
26271;SDS011;13997;48.902;12.472;2023-04-03T02:19:41;6.45;;;3.58;;
26271;SDS011;13997;48.902;12.472;2023-04-03T02:22:06;10.07;;;3.58;;
26271;SDS011;13997;48.902;12.472;2023-04-03T02:24:32;6.90;;;4.07;;
26271;SDS011;13997;48.902;12.472;2023-04-03T02:26:57;6.70;;;3.50;;
26271;SDS011;13997;48.902;12.472;2023-04-03T02:29:23;8.73;;;4.07;;
26271;SDS011;13997;48.902;12.472;2023-04-03T02:31:49;8.82;;;4.20;;
26271;SDS011;13997;48.902;12.472;2023-04-03T02:34:15;8.27;;;4.00;;
26271;SDS011;13997;48.902;12.472;2023-04-03T02:36:41;8.65;;;3.90;;
26271;SDS011;13997;48.902;12.472;2023-04-03T02:39:06;6.43;;;3.78;;
26271;SDS011;13997;48.902;12.472;2023-04-03T02:41:32;5.30;;;3.75;;
26271;SDS011;13997;48.902;12.472;2023-04-03T02:44:01;9.88;;;4.15;;
26271;SDS011;13997;48.902;12.472;2023-04-03T02:46:27;9.27;;;4.15;;
26271;SDS011;13997;48.902;12.472;2023-04-03T02:48:53;7.47;;;4.22;;
26271;SDS011;13997;48.902;12.472;2023-04-03T02:51:19;10.55;;;4.43;;
26271;SDS011;13997;48.902;12.472;2023-04-03T02:53:45;6.63;;;3.97;;
26271;SDS011;13997;48.902;12.472;2023-04-03T02:56:10;7.68;;;4.60;;
26271;SDS011;13997;48.902;12.472;2023-04-03T02:58:36;9.15;;;4.43;;
26271;SDS011;13997;48.902;12.472;2023-04-03T03:01:01;6.13;;;3.67;;
26271;SDS011;13997;48.902;12.472;2023-04-03T03:03:27;9.63;;;4.28;;
26271;SDS011;13997;48.902;12.472;2023-04-03T03:08:27;8.57;;;4.68;;
26271;SDS011;13997;48.902;12.472;2023-04-03T03:10:53;7.13;;;4.30;;
26271;SDS011;13997;48.902;12.472;2023-04-03T03:13:19;8.65;;;4.82;;
26271;SDS011;13997;48.902;12.472;2023-04-03T03:15:45;8.52;;;4.60;;
26271;SDS011;13997;48.902;12.472;2023-04-03T03:18:10;5.53;;;3.88;;
26271;SDS011;13997;48.902;12.472;2023-04-03T03:20:36;10.43;;;5.28;;
26271;SDS011;13997;48.902;12.472;2023-04-03T03:23:01;9.30;;;4.60;;
26271;SDS011;13997;48.902;12.472;2023-04-03T03:25:27;8.75;;;4.80;;
26271;SDS011;13997;48.902;12.472;2023-04-03T03:27:52;6.63;;;4.22;;
26271;SDS011;13997;48.902;12.472;2023-04-03T03:30:18;8.85;;;4.60;;
26271;SDS011;13997;48.902;12.472;2023-04-03T03:32:43;8.57;;;4.30;;
26271;SDS011;13997;48.902;12.472;2023-04-03T03:35:09;12.32;;;5.20;;
26271;SDS011;13997;48.902;12.472;2023-04-03T03:37:35;7.53;;;4.13;;
26271;SDS011;13997;48.902;12.472;2023-04-03T03:40:00;11.40;;;5.53;;
26271;SDS011;13997;48.902;12.472;2023-04-03T03:42:26;7.35;;;4.65;;
26271;SDS011;13997;48.902;12.472;2023-04-03T03:44:51;11.25;;;4.88;;
26271;SDS011;13997;48.902;12.472;2023-04-03T03:47:17;10.45;;;5.00;;
26271;SDS011;13997;48.902;12.472;2023-04-03T03:49:43;9.93;;;5.72;;
26271;SDS011;13997;48.902;12.472;2023-04-03T03:52:08;9.63;;;4.97;;
26271;SDS011;13997;48.902;12.472;2023-04-03T03:54:35;11.55;;;5.05;;
26271;SDS011;13997;48.902;12.472;2023-04-03T03:57:02;13.27;;;5.78;;
26271;SDS011;13997;48.902;12.472;2023-04-03T03:59:28;15.55;;;6.03;;
26271;SDS011;13997;48.902;12.472;2023-04-03T04:01:53;12.60;;;5.60;;
26271;SDS011;13997;48.902;12.472;2023-04-03T04:04:19;14.38;;;5.97;;
26271;SDS011;13997;48.902;12.472;2023-04-03T04:06:45;8.80;;;5.35;;
26271;SDS011;13997;48.902;12.472;2023-04-03T04:09:11;16.92;;;5.28;;
26271;SDS011;13997;48.902;12.472;2023-04-03T04:11:37;11.02;;;5.40;;
26271;SDS011;13997;48.902;12.472;2023-04-03T04:14:04;12.02;;;5.40;;
26271;SDS011;13997;48.902;12.472;2023-04-03T04:16:30;8.85;;;5.10;;
26271;SDS011;13997;48.902;12.472;2023-04-03T04:18:56;10.80;;;5.40;;
26271;SDS011;13997;48.902;12.472;2023-04-03T04:21:21;13.40;;;5.68;;
26271;SDS011;13997;48.902;12.472;2023-04-03T04:23:47;12.63;;;5.22;;
26271;SDS011;13997;48.902;12.472;2023-04-03T04:26:13;7.50;;;5.28;;
26271;SDS011;13997;48.902;12.472;2023-04-03T04:28:39;15.93;;;6.65;;
26271;SDS011;13997;48.902;12.472;2023-04-03T04:31:04;11.90;;;5.35;;
26271;SDS011;13997;48.902;12.472;2023-04-03T04:33:30;11.20;;;5.78;;
26271;SDS011;13997;48.902;12.472;2023-04-03T04:35:55;10.25;;;5.20;;
26271;SDS011;13997;48.902;12.472;2023-04-03T04:38:21;13.05;;;5.03;;
26271;SDS011;13997;48.902;12.472;2023-04-03T04:40:47;14.35;;;5.32;;
26271;SDS011;13997;48.902;12.472;2023-04-03T04:43:13;10.25;;;4.93;;
26271;SDS011;13997;48.902;12.472;2023-04-03T04:45:39;10.85;;;4.68;;
26271;SDS011;13997;48.902;12.472;2023-04-03T04:48:06;9.25;;;5.50;;
26271;SDS011;13997;48.902;12.472;2023-04-03T04:50:33;7.63;;;4.70;;
26271;SDS011;13997;48.902;12.472;2023-04-03T04:52:59;10.80;;;4.78;;
26271;SDS011;13997;48.902;12.472;2023-04-03T04:55:24;9.32;;;4.72;;
26271;SDS011;13997;48.902;12.472;2023-04-03T04:57:50;9.02;;;4.65;;
26271;SDS011;13997;48.902;12.472;2023-04-03T05:00:16;8.02;;;4.38;;
26271;SDS011;13997;48.902;12.472;2023-04-03T05:02:42;6.50;;;3.97;;
26271;SDS011;13997;48.902;12.472;2023-04-03T05:05:08;7.35;;;4.68;;
26271;SDS011;13997;48.902;12.472;2023-04-03T05:07:33;10.43;;;4.63;;
26271;SDS011;13997;48.902;12.472;2023-04-03T05:10:00;11.93;;;5.80;;
26271;SDS011;13997;48.902;12.472;2023-04-03T05:12:27;13.65;;;5.13;;
26271;SDS011;13997;48.902;12.472;2023-04-03T05:14:53;10.45;;;4.88;;
26271;SDS011;13997;48.902;12.472;2023-04-03T05:17:18;8.77;;;5.20;;
26271;SDS011;13997;48.902;12.472;2023-04-03T05:19:44;7.40;;;4.80;;
26271;SDS011;13997;48.902;12.472;2023-04-03T05:22:10;16.05;;;5.03;;
26271;SDS011;13997;48.902;12.472;2023-04-03T05:24:35;10.52;;;4.97;;
26271;SDS011;13997;48.902;12.472;2023-04-03T05:27:01;8.50;;;4.90;;
26271;SDS011;13997;48.902;12.472;2023-04-03T05:29:26;8.13;;;5.35;;
26271;SDS011;13997;48.902;12.472;2023-04-03T05:31:52;12.55;;;6.00;;
26271;SDS011;13997;48.902;12.472;2023-04-03T05:34:18;11.35;;;5.22;;
26271;SDS011;13997;48.902;12.472;2023-04-03T05:36:43;10.68;;;5.03;;
26271;SDS011;13997;48.902;12.472;2023-04-03T05:39:09;6.05;;;4.30;;
26271;SDS011;13997;48.902;12.472;2023-04-03T05:41:35;10.45;;;4.78;;
26271;SDS011;13997;48.902;12.472;2023-04-03T05:44:01;8.00;;;4.82;;
26271;SDS011;13997;48.902;12.472;2023-04-03T05:46:26;7.60;;;4.97;;
26271;SDS011;13997;48.902;12.472;2023-04-03T05:48:52;9.50;;;4.50;;
26271;SDS011;13997;48.902;12.472;2023-04-03T05:51:19;10.70;;;5.00;;
26271;SDS011;13997;48.902;12.472;2023-04-03T05:53:47;9.90;;;4.57;;
26271;SDS011;13997;48.902;12.472;2023-04-03T05:56:14;11.05;;;4.78;;
26271;SDS011;13997;48.902;12.472;2023-04-03T05:58:39;11.00;;;4.57;;
26271;SDS011;13997;48.902;12.472;2023-04-03T06:01:05;9.02;;;4.93;;
26271;SDS011;13997;48.902;12.472;2023-04-03T06:03:31;7.00;;;4.25;;
26271;SDS011;13997;48.902;12.472;2023-04-03T06:05:56;16.13;;;4.47;;
26271;SDS011;13997;48.902;12.472;2023-04-03T06:08:22;7.40;;;3.70;;
26271;SDS011;13997;48.902;12.472;2023-04-03T06:10:49;6.68;;;3.58;;
26271;SDS011;13997;48.902;12.472;2023-04-03T06:13:15;9.98;;;3.60;;
26271;SDS011;13997;48.902;12.472;2023-04-03T06:15:41;6.85;;;4.00;;
26271;SDS011;13997;48.902;12.472;2023-04-03T06:18:07;10.23;;;3.85;;
26271;SDS011;13997;48.902;12.472;2023-04-03T06:20:33;6.65;;;3.47;;
26271;SDS011;13997;48.902;12.472;2023-04-03T06:22:59;10.25;;;3.38;;
26271;SDS011;13997;48.902;12.472;2023-04-03T06:25:25;12.02;;;3.20;;
26271;SDS011;13997;48.902;12.472;2023-04-03T06:27:51;6.43;;;3.47;;
26271;SDS011;13997;48.902;12.472;2023-04-03T06:30:17;8.05;;;3.30;;
26271;SDS011;13997;48.902;12.472;2023-04-03T06:32:42;8.95;;;3.53;;
26271;SDS011;13997;48.902;12.472;2023-04-03T06:35:08;8.27;;;3.17;;
26271;SDS011;13997;48.902;12.472;2023-04-03T06:37:34;7.43;;;3.10;;
26271;SDS011;13997;48.902;12.472;2023-04-03T06:40:02;7.30;;;3.45;;
26271;SDS011;13997;48.902;12.472;2023-04-03T06:42:29;16.45;;;4.47;;
26271;SDS011;13997;48.902;12.472;2023-04-03T06:44:55;8.13;;;3.83;;
26271;SDS011;13997;48.902;12.472;2023-04-03T06:47:20;6.88;;;3.33;;
26271;SDS011;13997;48.902;12.472;2023-04-03T06:49:46;9.02;;;3.33;;
26271;SDS011;13997;48.902;12.472;2023-04-03T06:52:12;9.40;;;3.33;;
26271;SDS011;13997;48.902;12.472;2023-04-03T06:54:38;5.90;;;2.95;;
26271;SDS011;13997;48.902;12.472;2023-04-03T06:57:04;8.38;;;3.28;;
26271;SDS011;13997;48.902;12.472;2023-04-03T06:59:29;8.45;;;2.80;;
26271;SDS011;13997;48.902;12.472;2023-04-03T07:01:55;9.20;;;3.20;;
26271;SDS011;13997;48.902;12.472;2023-04-03T07:04:21;9.30;;;2.40;;
26271;SDS011;13997;48.902;12.472;2023-04-03T07:06:47;5.30;;;2.58;;
26271;SDS011;13997;48.902;12.472;2023-04-03T07:09:13;7.13;;;2.40;;
26271;SDS011;13997;48.902;12.472;2023-04-03T07:11:40;7.75;;;3.17;;
26271;SDS011;13997;48.902;12.472;2023-04-03T07:14:05;8.00;;;3.00;;
26271;SDS011;13997;48.902;12.472;2023-04-03T07:16:32;7.40;;;2.90;;
26271;SDS011;13997;48.902;12.472;2023-04-03T07:19:02;5.80;;;2.83;;
26271;SDS011;13997;48.902;12.472;2023-04-03T07:21:28;5.05;;;2.60;;
26271;SDS011;13997;48.902;12.472;2023-04-03T07:23:54;4.82;;;2.70;;
26271;SDS011;13997;48.902;12.472;2023-04-03T07:26:20;4.35;;;2.17;;
26271;SDS011;13997;48.902;12.472;2023-04-03T07:28:47;10.98;;;2.58;;
26271;SDS011;13997;48.902;12.472;2023-04-03T07:31:14;8.68;;;2.72;;
26271;SDS011;13997;48.902;12.472;2023-04-03T07:33:40;5.45;;;2.58;;
26271;SDS011;13997;48.902;12.472;2023-04-03T07:36:06;6.68;;;2.97;;
26271;SDS011;13997;48.902;12.472;2023-04-03T07:38:33;5.93;;;2.78;;
26271;SDS011;13997;48.902;12.472;2023-04-03T07:41:00;6.70;;;2.63;;
26271;SDS011;13997;48.902;12.472;2023-04-03T07:43:25;10.05;;;2.80;;
26271;SDS011;13997;48.902;12.472;2023-04-03T07:49:05;7.88;;;2.97;;
26271;SDS011;13997;48.902;12.472;2023-04-03T07:51:31;8.20;;;2.70;;
26271;SDS011;13997;48.902;12.472;2023-04-03T07:53:57;4.47;;;2.75;;
26271;SDS011;13997;48.902;12.472;2023-04-03T07:56:23;6.50;;;2.83;;
26271;SDS011;13997;48.902;12.472;2023-04-03T07:58:50;6.63;;;2.85;;
26271;SDS011;13997;48.902;12.472;2023-04-03T08:01:16;6.13;;;2.67;;
26271;SDS011;13997;48.902;12.472;2023-04-03T08:03:42;9.15;;;2.60;;
26271;SDS011;13997;48.902;12.472;2023-04-03T08:06:08;6.93;;;2.63;;
26271;SDS011;13997;48.902;12.472;2023-04-03T08:08:35;5.00;;;2.20;;
26271;SDS011;13997;48.902;12.472;2023-04-03T08:11:01;6.97;;;2.47;;
26271;SDS011;13997;48.902;12.472;2023-04-03T08:13:28;6.22;;;2.22;;
26271;SDS011;13997;48.902;12.472;2023-04-03T08:15:55;4.20;;;2.30;;
26271;SDS011;13997;48.902;12.472;2023-04-03T08:18:22;6.55;;;2.05;;
26271;SDS011;13997;48.902;12.472;2023-04-03T08:20:49;6.15;;;2.33;;
26271;SDS011;13997;48.902;12.472;2023-04-03T08:23:16;9.57;;;2.60;;
26271;SDS011;13997;48.902;12.472;2023-04-03T08:25:43;10.70;;;2.25;;
26271;SDS011;13997;48.902;12.472;2023-04-03T08:28:09;4.13;;;2.05;;
26271;SDS011;13997;48.902;12.472;2023-04-03T08:30:38;6.20;;;2.10;;
26271;SDS011;13997;48.902;12.472;2023-04-03T08:33:05;7.70;;;2.00;;
26271;SDS011;13997;48.902;12.472;2023-04-03T08:35:31;5.28;;;1.75;;
26271;SDS011;13997;48.902;12.472;2023-04-03T08:37:57;4.28;;;2.45;;
26271;SDS011;13997;48.902;12.472;2023-04-03T08:40:22;4.28;;;1.90;;
26271;SDS011;13997;48.902;12.472;2023-04-03T08:50:56;6.47;;;1.90;;
26271;SDS011;13997;48.902;12.472;2023-04-03T08:53:27;8.20;;;2.35;;
26271;SDS011;13997;48.902;12.472;2023-04-03T08:55:57;4.03;;;1.75;;
26271;SDS011;13997;48.902;12.472;2023-04-03T08:58:30;4.00;;;1.90;;
26271;SDS011;13997;48.902;12.472;2023-04-03T09:01:07;5.30;;;1.92;;
26271;SDS011;13997;48.902;12.472;2023-04-03T09:03:49;4.97;;;1.98;;
26271;SDS011;13997;48.902;12.472;2023-04-03T09:11:16;3.65;;;1.60;;
26271;SDS011;13997;48.902;12.472;2023-04-03T09:13:57;3.63;;;1.30;;
26271;SDS011;13997;48.902;12.472;2023-04-03T09:16:46;2.55;;;1.17;;
26271;SDS011;13997;48.902;12.472;2023-04-03T09:21:57;3.70;;;1.58;;
26271;SDS011;13997;48.902;12.472;2023-04-03T09:24:26;4.35;;;1.38;;
26271;SDS011;13997;48.902;12.472;2023-04-03T09:27:26;2.50;;;1.58;;
26271;SDS011;13997;48.902;12.472;2023-04-03T09:29:44;4.63;;;1.60;;
26271;SDS011;13997;48.902;12.472;2023-04-03T09:32:22;4.57;;;1.70;;
26271;SDS011;13997;48.902;12.472;2023-04-03T09:34:52;7.32;;;1.80;;
26271;SDS011;13997;48.902;12.472;2023-04-03T09:37:33;5.47;;;1.52;;
26271;SDS011;13997;48.902;12.472;2023-04-03T09:40:02;4.95;;;1.90;;
26271;SDS011;13997;48.902;12.472;2023-04-03T09:42:29;4.88;;;1.17;;
26271;SDS011;13997;48.902;12.472;2023-04-03T09:47:24;3.50;;;1.70;;
26271;SDS011;13997;48.902;12.472;2023-04-03T09:49:56;4.70;;;1.70;;
26271;SDS011;13997;48.902;12.472;2023-04-03T09:52:45;5.15;;;1.83;;
26271;SDS011;13997;48.902;12.472;2023-04-03T09:55:20;5.28;;;1.67;;
26271;SDS011;13997;48.902;12.472;2023-04-03T09:57:52;2.72;;;1.40;;
26271;SDS011;13997;48.902;12.472;2023-04-03T10:00:21;6.03;;;1.75;;
26271;SDS011;13997;48.902;12.472;2023-04-03T10:02:52;4.05;;;1.75;;
26271;SDS011;13997;48.902;12.472;2023-04-03T10:05:33;3.75;;;1.70;;
26271;SDS011;13997;48.902;12.472;2023-04-03T10:10:41;3.63;;;1.50;;
26271;SDS011;13997;48.902;12.472;2023-04-03T10:13:26;3.27;;;1.50;;
26271;SDS011;13997;48.902;12.472;2023-04-03T10:15:56;3.35;;;1.42;;
26271;SDS011;13997;48.902;12.472;2023-04-03T10:18:40;3.45;;;1.63;;
26271;SDS011;13997;48.902;12.472;2023-04-03T10:21:20;5.35;;;1.50;;
26271;SDS011;13997;48.902;12.472;2023-04-03T10:24:11;2.88;;;1.40;;
26271;SDS011;13997;48.902;12.472;2023-04-03T10:27:03;5.05;;;2.42;;
26271;SDS011;13997;48.902;12.472;2023-04-03T10:29:38;6.47;;;1.55;;
26271;SDS011;13997;48.902;12.472;2023-04-03T10:38:01;3.67;;;1.63;;
26271;SDS011;13997;48.902;12.472;2023-04-03T10:43:06;3.92;;;1.60;;
26271;SDS011;13997;48.902;12.472;2023-04-03T10:46:20;4.32;;;1.80;;
26271;SDS011;13997;48.902;12.472;2023-04-03T10:53:56;4.35;;;1.80;;
26271;SDS011;13997;48.902;12.472;2023-04-03T10:56:40;3.92;;;1.60;;
26271;SDS011;13997;48.902;12.472;2023-04-03T10:59:29;3.58;;;1.88;;
26271;SDS011;13997;48.902;12.472;2023-04-03T11:02:04;3.47;;;1.75;;
26271;SDS011;13997;48.902;12.472;2023-04-03T11:04:37;5.43;;;1.70;;
26271;SDS011;13997;48.902;12.472;2023-04-03T11:07:12;3.65;;;1.80;;
26271;SDS011;13997;48.902;12.472;2023-04-03T11:09:41;4.03;;;1.60;;
26271;SDS011;13997;48.902;12.472;2023-04-03T11:12:59;4.25;;;2.00;;
26271;SDS011;13997;48.902;12.472;2023-04-03T11:15:11;5.25;;;1.90;;
26271;SDS011;13997;48.902;12.472;2023-04-03T11:17:42;3.25;;;1.92;;
26271;SDS011;13997;48.902;12.472;2023-04-03T11:20:25;6.05;;;1.63;;
26271;SDS011;13997;48.902;12.472;2023-04-03T11:23:06;6.22;;;2.03;;
26271;SDS011;13997;48.902;12.472;2023-04-03T11:25:46;4.82;;;1.90;;
26271;SDS011;13997;48.902;12.472;2023-04-03T11:28:17;2.08;;;1.50;;
26271;SDS011;13997;48.902;12.472;2023-04-03T11:36:26;2.67;;;1.50;;
26271;SDS011;13997;48.902;12.472;2023-04-03T11:38:56;3.03;;;1.73;;
26271;SDS011;13997;48.902;12.472;2023-04-03T11:41:29;6.27;;;1.90;;
26271;SDS011;13997;48.902;12.472;2023-04-03T11:44:11;5.10;;;1.63;;
26271;SDS011;13997;48.902;12.472;2023-04-03T11:46:59;4.72;;;1.77;;
26271;SDS011;13997;48.902;12.472;2023-04-03T12:19:24;3.70;;;1.90;;
26271;SDS011;13997;48.902;12.472;2023-04-03T12:24:25;5.75;;;1.90;;
26271;SDS011;13997;48.902;12.472;2023-04-03T12:27:02;13.40;;;2.00;;
26271;SDS011;13997;48.902;12.472;2023-04-03T12:32:26;2.88;;;1.70;;
26271;SDS011;13997;48.902;12.472;2023-04-03T12:41:31;6.20;;;2.43;;
26271;SDS011;13997;48.902;12.472;2023-04-03T12:51:55;3.67;;;2.00;;
26271;SDS011;13997;48.902;12.472;2023-04-03T12:54:23;10.27;;;1.85;;
26271;SDS011;13997;48.902;12.472;2023-04-03T12:56:49;4.03;;;1.98;;
26271;SDS011;13997;48.902;12.472;2023-04-03T13:01:58;5.35;;;1.83;;
26271;SDS011;13997;48.902;12.472;2023-04-03T13:04:29;4.80;;;1.80;;
26271;SDS011;13997;48.902;12.472;2023-04-03T13:06:56;6.38;;;2.17;;
26271;SDS011;13997;48.902;12.472;2023-04-03T13:09:29;3.53;;;1.90;;
26271;SDS011;13997;48.902;12.472;2023-04-03T13:12:15;3.95;;;1.73;;
26271;SDS011;13997;48.902;12.472;2023-04-03T13:14:51;5.25;;;1.92;;
26271;SDS011;13997;48.902;12.472;2023-04-03T13:17:18;4.97;;;1.75;;
26271;SDS011;13997;48.902;12.472;2023-04-03T13:19:44;4.13;;;1.80;;
26271;SDS011;13997;48.902;12.472;2023-04-03T13:24:58;6.35;;;2.47;;
26271;SDS011;13997;48.902;12.472;2023-04-03T13:27:27;5.13;;;2.47;;
26271;SDS011;13997;48.902;12.472;2023-04-03T13:29:57;4.30;;;1.60;;
26271;SDS011;13997;48.902;12.472;2023-04-03T14:09:49;2.92;;;1.70;;
26271;SDS011;13997;48.902;12.472;2023-04-03T14:15:18;8.07;;;1.83;;
26271;SDS011;13997;48.902;12.472;2023-04-03T14:17:48;5.55;;;3.35;;
26271;SDS011;13997;48.902;12.472;2023-04-03T14:20:16;10.27;;;5.13;;
26271;SDS011;13997;48.902;12.472;2023-04-03T14:22:45;5.47;;;3.10;;
26271;SDS011;13997;48.902;12.472;2023-04-03T14:25:11;7.60;;;3.38;;
26271;SDS011;13997;48.902;12.472;2023-04-03T14:27:41;3.00;;;1.60;;
26271;SDS011;13997;48.902;12.472;2023-04-03T14:30:11;4.78;;;2.33;;
26271;SDS011;13997;48.902;12.472;2023-04-03T14:32:52;3.95;;;1.70;;
26271;SDS011;13997;48.902;12.472;2023-04-03T14:35:18;6.80;;;1.70;;
26271;SDS011;13997;48.902;12.472;2023-04-03T14:37:44;4.60;;;2.53;;
26271;SDS011;13997;48.902;12.472;2023-04-03T14:40:15;7.00;;;2.45;;
26271;SDS011;13997;48.902;12.472;2023-04-03T14:42:44;5.30;;;2.72;;
26271;SDS011;13997;48.902;12.472;2023-04-03T14:45:12;8.27;;;2.72;;
26271;SDS011;13997;48.902;12.472;2023-04-03T14:47:45;5.57;;;2.50;;
26271;SDS011;13997;48.902;12.472;2023-04-03T14:50:14;5.30;;;2.15;;
26271;SDS011;13997;48.902;12.472;2023-04-03T14:52:42;3.35;;;2.10;;
26271;SDS011;13997;48.902;12.472;2023-04-03T14:55:09;5.10;;;2.00;;
26271;SDS011;13997;48.902;12.472;2023-04-03T14:57:36;2.85;;;1.60;;
26271;SDS011;13997;48.902;12.472;2023-04-03T15:00:04;5.10;;;1.83;;
26271;SDS011;13997;48.902;12.472;2023-04-03T15:02:34;6.20;;;1.73;;
26271;SDS011;13997;48.902;12.472;2023-04-03T15:05:02;3.47;;;1.80;;
26271;SDS011;13997;48.902;12.472;2023-04-03T15:07:31;7.43;;;2.33;;
26271;SDS011;13997;48.902;12.472;2023-04-03T15:12:40;5.63;;;2.05;;
26271;SDS011;13997;48.902;12.472;2023-04-03T15:15:07;3.60;;;1.60;;
26271;SDS011;13997;48.902;12.472;2023-04-03T15:17:33;12.25;;;4.88;;
26271;SDS011;13997;48.902;12.472;2023-04-03T15:19:59;4.22;;;1.83;;
26271;SDS011;13997;48.902;12.472;2023-04-03T15:22:25;4.75;;;1.88;;
26271;SDS011;13997;48.902;12.472;2023-04-03T15:24:51;3.38;;;1.60;;
26271;SDS011;13997;48.902;12.472;2023-04-03T15:27:17;7.53;;;2.83;;
26271;SDS011;13997;48.902;12.472;2023-04-03T15:29:42;6.80;;;2.88;;
26271;SDS011;13997;48.902;12.472;2023-04-03T15:32:09;6.95;;;2.70;;
26271;SDS011;13997;48.902;12.472;2023-04-03T15:34:35;4.03;;;1.90;;
26271;SDS011;13997;48.902;12.472;2023-04-03T15:37:01;5.20;;;2.00;;
26271;SDS011;13997;48.902;12.472;2023-04-03T15:39:27;5.60;;;1.50;;
26271;SDS011;13997;48.902;12.472;2023-04-03T15:41:53;8.60;;;3.08;;
26271;SDS011;13997;48.902;12.472;2023-04-03T15:44:19;4.40;;;2.50;;
26271;SDS011;13997;48.902;12.472;2023-04-03T15:46:47;6.25;;;2.20;;
26271;SDS011;13997;48.902;12.472;2023-04-03T15:49:16;12.10;;;2.95;;
26271;SDS011;13997;48.902;12.472;2023-04-03T15:51:43;7.70;;;2.30;;
26271;SDS011;13997;48.902;12.472;2023-04-03T15:54:09;14.40;;;5.50;;
26271;SDS011;13997;48.902;12.472;2023-04-03T15:56:35;6.93;;;2.30;;
26271;SDS011;13997;48.902;12.472;2023-04-03T15:59:00;12.68;;;4.97;;
26271;SDS011;13997;48.902;12.472;2023-04-03T16:01:26;10.25;;;4.38;;
26271;SDS011;13997;48.902;12.472;2023-04-03T16:03:51;5.20;;;2.00;;
26271;SDS011;13997;48.902;12.472;2023-04-03T16:06:17;5.63;;;2.17;;
26271;SDS011;13997;48.902;12.472;2023-04-03T16:08:44;5.70;;;2.17;;
26271;SDS011;13997;48.902;12.472;2023-04-03T16:11:11;5.32;;;2.10;;
26271;SDS011;13997;48.902;12.472;2023-04-03T16:13:37;6.65;;;2.45;;
26271;SDS011;13997;48.902;12.472;2023-04-03T16:16:02;7.28;;;2.80;;
26271;SDS011;13997;48.902;12.472;2023-04-03T16:18:29;6.57;;;2.80;;
26271;SDS011;13997;48.902;12.472;2023-04-03T16:20:55;6.55;;;2.40;;
26271;SDS011;13997;48.902;12.472;2023-04-03T16:23:21;3.83;;;2.00;;
26271;SDS011;13997;48.902;12.472;2023-04-03T16:25:47;5.22;;;2.10;;
26271;SDS011;13997;48.902;12.472;2023-04-03T16:28:15;8.68;;;2.75;;
26271;SDS011;13997;48.902;12.472;2023-04-03T16:30:42;9.63;;;5.55;;
26271;SDS011;13997;48.902;12.472;2023-04-03T16:33:09;9.70;;;4.82;;
26271;SDS011;13997;48.902;12.472;2023-04-03T16:35:36;5.65;;;3.70;;
26271;SDS011;13997;48.902;12.472;2023-04-03T16:38:04;6.07;;;3.33;;
26271;SDS011;13997;48.902;12.472;2023-04-03T16:40:30;8.82;;;3.28;;
26271;SDS011;13997;48.902;12.472;2023-04-03T16:42:55;4.65;;;2.40;;
26271;SDS011;13997;48.902;12.472;2023-04-03T16:45:21;7.15;;;2.47;;
26271;SDS011;13997;48.902;12.472;2023-04-03T16:47:47;10.63;;;3.17;;
26271;SDS011;13997;48.902;12.472;2023-04-03T16:50:12;4.53;;;2.78;;
26271;SDS011;13997;48.902;12.472;2023-04-03T16:52:38;8.73;;;2.72;;
26271;SDS011;13997;48.902;12.472;2023-04-03T16:55:04;4.60;;;2.42;;
26271;SDS011;13997;48.902;12.472;2023-04-03T16:57:31;5.75;;;2.67;;
26271;SDS011;13997;48.902;12.472;2023-04-03T16:59:56;5.63;;;2.60;;
26271;SDS011;13997;48.902;12.472;2023-04-03T17:02:22;14.57;;;7.03;;
26271;SDS011;13997;48.902;12.472;2023-04-03T17:04:54;5.80;;;2.65;;
26271;SDS011;13997;48.902;12.472;2023-04-03T17:07:20;7.20;;;3.28;;
26271;SDS011;13997;48.902;12.472;2023-04-03T17:09:46;9.40;;;2.95;;
26271;SDS011;13997;48.902;12.472;2023-04-03T17:12:12;4.43;;;1.90;;
26271;SDS011;13997;48.902;12.472;2023-04-03T17:14:38;10.38;;;2.63;;
26271;SDS011;13997;48.902;12.472;2023-04-03T17:17:04;5.85;;;2.28;;